createdAt,value
2023-03-26T00:00:01.047Z,0.00
2023-03-26T00:01:01.026Z,0.00
2023-03-26T00:02:01.055Z,0.00
2023-03-26T00:03:01.008Z,0.00
2023-03-26T00:04:00.959Z,0.00
2023-03-26T00:05:00.918Z,0.00
2023-03-26T00:06:00.967Z,0.00
2023-03-26T00:07:00.876Z,0.00
2023-03-26T00:08:00.854Z,0.00
2023-03-26T00:09:00.845Z,0.00
2023-03-26T00:10:00.806Z,0.00
2023-03-26T00:11:01.254Z,0.00
2023-03-26T00:12:00.757Z,0.00
2023-03-26T00:13:00.744Z,0.00
2023-03-26T00:14:00.732Z,0.00
2023-03-26T00:15:00.682Z,0.00
2023-03-26T00:16:00.653Z,0.00
2023-03-26T00:17:00.639Z,0.00
2023-03-26T00:18:00.650Z,0.00
2023-03-26T00:19:00.588Z,0.00
2023-03-26T00:20:00.585Z,0.00
2023-03-26T00:21:00.559Z,0.00
2023-03-26T00:22:00.524Z,0.00
2023-03-26T00:23:00.497Z,0.00
2023-03-26T00:24:00.455Z,0.00
2023-03-26T00:25:00.441Z,0.00
2023-03-26T00:26:00.424Z,0.00
2023-03-26T00:27:00.390Z,0.00
2023-03-26T00:28:00.376Z,0.00
2023-03-26T00:29:00.353Z,0.00
2023-03-26T00:30:00.320Z,0.00
2023-03-26T00:31:00.313Z,0.00
2023-03-26T00:32:00.267Z,0.00
2023-03-26T00:33:00.447Z,0.00
2023-03-26T00:34:00.376Z,0.00
2023-03-26T00:35:00.208Z,0.00
2023-03-26T00:36:02.473Z,0.00
2023-03-26T00:37:00.155Z,0.00
2023-03-26T00:38:00.161Z,0.00
2023-03-26T00:39:00.120Z,0.00
2023-03-26T00:40:00.917Z,0.00
2023-03-26T00:41:00.098Z,0.00
2023-03-26T00:42:00.039Z,0.00
2023-03-26T00:43:00.023Z,0.00
2023-03-26T00:44:00.012Z,0.00
2023-03-26T00:44:59.965Z,0.00
2023-03-26T00:45:59.970Z,0.00
2023-03-26T00:46:59.913Z,0.00
2023-03-26T00:47:59.918Z,0.00
2023-03-26T00:48:59.935Z,0.00
2023-03-26T00:49:59.855Z,0.00
2023-03-26T00:50:59.836Z,0.00
2023-03-26T00:51:59.784Z,0.00
2023-03-26T00:52:59.779Z,0.00
2023-03-26T00:53:59.738Z,0.00
2023-03-26T00:54:59.718Z,0.00
2023-03-26T00:55:59.692Z,0.00
2023-03-26T00:56:59.695Z,0.00
2023-03-26T00:57:59.641Z,0.00
2023-03-26T00:58:59.618Z,0.00
2023-03-26T00:59:59.600Z,0.00
2023-03-26T01:00:59.579Z,0.00
2023-03-26T01:01:59.581Z,0.00
2023-03-26T01:02:59.766Z,0.00
2023-03-26T01:04:08.205Z,0.00
2023-03-26T01:04:59.552Z,0.00
2023-03-26T01:05:59.452Z,0.00
2023-03-26T01:06:59.453Z,0.00
2023-03-26T01:07:59.393Z,0.00
2023-03-26T01:08:59.379Z,0.00
2023-03-26T01:09:59.351Z,0.00
2023-03-26T01:10:59.338Z,0.00
2023-03-26T01:11:59.295Z,0.00
2023-03-26T01:12:59.284Z,0.00
2023-03-26T01:13:59.262Z,0.00
2023-03-26T01:14:59.231Z,0.00
2023-03-26T01:15:59.242Z,0.00
2023-03-26T01:16:59.191Z,0.00
2023-03-26T01:17:59.210Z,0.00
2023-03-26T01:18:59.300Z,0.00
2023-03-26T01:19:59.130Z,0.00
2023-03-26T01:20:59.082Z,0.00
2023-03-26T01:21:59.113Z,0.00
2023-03-26T01:22:59.038Z,0.00
2023-03-26T01:23:59.001Z,0.00
2023-03-26T01:24:59.012Z,0.00
2023-03-26T01:25:58.962Z,0.00
2023-03-26T01:26:58.935Z,0.00
2023-03-26T01:27:58.913Z,0.00
2023-03-26T01:28:58.886Z,0.00
2023-03-26T01:29:58.854Z,0.00
2023-03-26T01:30:58.844Z,0.00
2023-03-26T01:31:58.811Z,0.00
2023-03-26T01:32:58.881Z,0.00
2023-03-26T01:33:58.782Z,0.00
2023-03-26T01:34:58.775Z,0.00
2023-03-26T01:35:58.859Z,0.00
2023-03-26T01:36:58.695Z,0.00
2023-03-26T01:37:58.773Z,0.00
2023-03-26T01:38:59.379Z,0.00
2023-03-26T01:39:58.614Z,0.00
2023-03-26T01:40:58.593Z,0.00
2023-03-26T01:41:58.587Z,0.00
2023-03-26T01:42:58.544Z,0.00
2023-03-26T01:43:58.510Z,0.00
2023-03-26T01:44:58.558Z,0.00
2023-03-26T01:45:58.462Z,0.00
2023-03-26T01:46:58.477Z,0.00
2023-03-26T01:47:58.443Z,0.00
2023-03-26T01:48:58.436Z,0.00
2023-03-26T01:49:58.365Z,0.00
2023-03-26T01:50:58.346Z,0.00
2023-03-26T01:51:58.362Z,0.00
2023-03-26T01:52:58.291Z,0.00
2023-03-26T01:53:58.262Z,0.00
2023-03-26T01:54:58.247Z,0.00
2023-03-26T01:55:58.221Z,0.00
2023-03-26T01:56:58.218Z,0.00
2023-03-26T01:57:58.169Z,0.00
2023-03-26T01:58:58.140Z,0.00
2023-03-26T01:59:58.119Z,0.00
2023-03-26T02:00:58.091Z,0.00
2023-03-26T02:01:58.145Z,0.00
2023-03-26T02:02:58.150Z,0.00
2023-03-26T02:03:58.023Z,0.00
2023-03-26T02:04:57.996Z,0.00
2023-03-26T02:05:57.987Z,0.00
2023-03-26T02:06:57.944Z,0.00
2023-03-26T02:07:57.946Z,0.00
2023-03-26T02:08:57.908Z,0.00
2023-03-26T02:09:57.880Z,0.00
2023-03-26T02:10:57.851Z,0.00
2023-03-26T02:11:57.824Z,0.00
2023-03-26T02:12:57.797Z,0.00
2023-03-26T02:13:57.780Z,0.00
2023-03-26T02:14:57.741Z,0.00
2023-03-26T02:15:57.862Z,0.00
2023-03-26T02:16:57.710Z,0.00
2023-03-26T02:17:57.723Z,0.00
2023-03-26T02:18:57.701Z,0.00
2023-03-26T02:19:57.630Z,0.00
2023-03-26T02:20:57.593Z,0.00
2023-03-26T02:21:57.588Z,0.00
2023-03-26T02:22:57.560Z,0.00
2023-03-26T02:23:57.543Z,0.00
2023-03-26T02:24:57.505Z,0.00
2023-03-26T02:25:57.494Z,0.00
2023-03-26T02:26:57.459Z,0.00
2023-03-26T02:27:57.429Z,0.00
2023-03-26T02:28:57.426Z,0.00
2023-03-26T02:29:57.376Z,0.00
2023-03-26T02:30:57.353Z,0.00
2023-03-26T02:31:57.399Z,0.00
2023-03-26T02:32:57.335Z,0.00
2023-03-26T02:33:57.310Z,0.00
2023-03-26T02:34:57.257Z,0.00
2023-03-26T02:35:57.438Z,0.00
2023-03-26T02:36:57.249Z,0.00
2023-03-26T02:37:57.185Z,0.00
2023-03-26T02:38:57.180Z,0.00
2023-03-26T02:39:57.139Z,0.00
2023-03-26T02:40:57.104Z,0.00
2023-03-26T02:41:57.086Z,0.00
2023-03-26T02:42:57.061Z,0.00
2023-03-26T02:43:57.043Z,0.00
2023-03-26T02:44:57.007Z,0.00
2023-03-26T02:45:57.390Z,0.00
2023-03-26T02:46:56.980Z,0.00
2023-03-26T02:47:56.955Z,0.00
2023-03-26T02:48:56.943Z,0.00
2023-03-26T02:49:56.892Z,0.00
2023-03-26T02:50:56.873Z,0.00
2023-03-26T02:51:56.838Z,0.00
2023-03-26T02:52:56.820Z,0.00
2023-03-26T02:53:56.798Z,0.00
2023-03-26T02:54:56.763Z,0.00
2023-03-26T02:55:56.950Z,0.00
2023-03-26T02:56:56.746Z,0.00
2023-03-26T02:57:56.702Z,0.00
2023-03-26T02:58:56.663Z,0.00
2023-03-26T02:59:56.639Z,0.00
2023-03-26T03:00:56.752Z,0.00
2023-03-26T03:01:56.599Z,0.00
2023-03-26T03:02:56.724Z,0.00
2023-03-26T03:03:56.554Z,0.00
2023-03-26T03:04:56.516Z,0.00
2023-03-26T03:05:56.792Z,0.00
2023-03-26T03:06:56.505Z,0.00
2023-03-26T03:07:56.450Z,0.00
2023-03-26T03:08:56.425Z,0.00
2023-03-26T03:09:56.409Z,0.00
2023-03-26T03:10:56.416Z,0.00
2023-03-26T03:11:56.351Z,0.00
2023-03-26T03:12:56.321Z,0.00
2023-03-26T03:13:56.295Z,0.00
2023-03-26T03:14:56.286Z,0.00
2023-03-26T03:15:56.357Z,0.00
2023-03-26T03:16:56.269Z,0.00
2023-03-26T03:17:56.240Z,0.00
2023-03-26T03:18:57.853Z,0.00
2023-03-26T03:19:56.150Z,0.00
2023-03-26T03:20:56.130Z,0.00
2023-03-26T03:21:56.101Z,0.00
2023-03-26T03:22:56.073Z,0.00
2023-03-26T03:23:56.053Z,0.00
2023-03-26T03:24:56.036Z,0.00
2023-03-26T03:25:56.160Z,0.00
2023-03-26T03:26:55.996Z,0.00
2023-03-26T03:27:55.961Z,0.00
2023-03-26T03:28:55.926Z,0.00
2023-03-26T03:29:55.925Z,0.00
2023-03-26T03:30:55.901Z,0.00
2023-03-26T03:31:55.879Z,0.00
2023-03-26T03:32:55.860Z,0.00
2023-03-26T03:33:55.812Z,0.00
2023-03-26T03:34:55.785Z,0.00
2023-03-26T03:35:55.963Z,0.00
2023-03-26T03:36:55.737Z,0.00
2023-03-26T03:37:55.716Z,0.00
2023-03-26T03:38:55.682Z,0.00
2023-03-26T03:39:55.714Z,0.00
2023-03-26T03:40:55.636Z,0.00
2023-03-26T03:41:55.629Z,0.00
2023-03-26T03:42:55.587Z,0.00
2023-03-26T03:43:55.576Z,0.00
2023-03-26T03:44:55.541Z,0.00
2023-03-26T03:45:55.754Z,0.00
2023-03-26T03:46:55.536Z,0.00
2023-03-26T03:47:55.513Z,0.00
2023-03-26T03:48:55.457Z,0.00
2023-03-26T03:49:55.541Z,0.00
2023-03-26T03:50:55.395Z,0.00
2023-03-26T03:51:55.367Z,0.00
2023-03-26T03:52:55.348Z,0.00
2023-03-26T03:53:55.324Z,0.00
2023-03-26T03:54:55.298Z,0.00
2023-03-26T03:55:55.530Z,0.00
2023-03-26T03:56:55.286Z,0.00
2023-03-26T03:57:55.227Z,0.00
2023-03-26T03:58:55.197Z,0.00
2023-03-26T03:59:55.192Z,0.00
2023-03-26T04:00:55.147Z,0.00
2023-03-26T04:01:55.146Z,0.00
2023-03-26T04:02:55.165Z,0.00
2023-03-26T04:03:55.196Z,0.00
2023-03-26T04:04:55.047Z,0.00
2023-03-26T04:05:55.458Z,0.00
2023-03-26T04:06:55.000Z,0.00
2023-03-26T04:07:54.996Z,0.00
2023-03-26T04:08:54.955Z,0.00
2023-03-26T04:09:54.949Z,0.00
2023-03-26T04:10:54.920Z,0.00
2023-03-26T04:11:54.885Z,0.00
2023-03-26T04:12:54.858Z,0.00
2023-03-26T04:13:54.833Z,0.00
2023-03-26T04:14:54.803Z,0.00
2023-03-26T04:15:55.068Z,0.00
2023-03-26T04:16:54.756Z,0.00
2023-03-26T04:17:54.775Z,0.00
2023-03-26T04:18:54.706Z,0.00
2023-03-26T04:19:54.680Z,0.00
2023-03-26T04:20:54.653Z,0.00
2023-03-26T04:21:54.639Z,0.00
2023-03-26T04:22:54.609Z,0.00
2023-03-26T04:23:54.583Z,0.00
2023-03-26T04:24:54.716Z,0.00
2023-03-26T04:25:54.764Z,0.00
2023-03-26T04:26:54.514Z,0.00
2023-03-26T04:27:54.490Z,0.00
2023-03-26T04:28:54.456Z,0.00
2023-03-26T04:29:54.444Z,0.00
2023-03-26T04:30:54.409Z,0.00
2023-03-26T04:31:54.459Z,0.00
2023-03-26T04:32:54.504Z,0.00
2023-03-26T04:33:54.344Z,0.00
2023-03-26T04:34:54.832Z,0.00
2023-03-26T04:35:54.605Z,0.00
2023-03-26T04:36:54.269Z,0.00
2023-03-26T04:37:54.247Z,0.00
2023-03-26T04:38:54.232Z,0.00
2023-03-26T04:39:54.203Z,0.00
2023-03-26T04:40:54.164Z,0.00
2023-03-26T04:41:54.151Z,0.00
2023-03-26T04:42:54.112Z,0.00
2023-03-26T04:43:54.118Z,0.00
2023-03-26T04:44:54.065Z,0.00
2023-03-26T04:45:54.456Z,0.00
2023-03-26T04:46:54.112Z,4.00
2023-03-26T04:47:54.060Z,0.00
2023-03-26T04:48:53.978Z,4.00
2023-03-26T04:49:53.944Z,4.00
2023-03-26T04:50:53.935Z,4.00
2023-03-26T04:51:53.898Z,4.00
2023-03-26T04:52:53.869Z,4.00
2023-03-26T04:53:53.857Z,8.00
2023-03-26T04:54:53.812Z,4.00
2023-03-26T04:55:53.925Z,4.00
2023-03-26T04:56:53.868Z,8.00
2023-03-26T04:57:53.749Z,12.00
2023-03-26T04:58:53.728Z,12.00
2023-03-26T04:59:53.742Z,20.00
2023-03-26T05:00:53.709Z,20.00
2023-03-26T05:01:53.655Z,24.00
2023-03-26T05:02:53.612Z,32.00
2023-03-26T05:03:53.615Z,36.00
2023-03-26T05:04:53.578Z,40.00
2023-03-26T05:05:53.850Z,40.00
2023-03-26T05:06:53.524Z,48.00
2023-03-26T05:07:53.495Z,52.00
2023-03-26T05:08:53.482Z,60.00
2023-03-26T05:09:53.453Z,64.00
2023-03-26T05:10:53.759Z,72.00
2023-03-26T05:11:53.397Z,84.00
2023-03-26T05:12:53.368Z,92.00
2023-03-26T05:13:53.363Z,104.00
2023-03-26T05:14:53.315Z,112.00
2023-03-26T05:15:53.303Z,128.00
2023-03-26T05:16:53.356Z,140.00
2023-03-26T05:17:53.321Z,152.00
2023-03-26T05:18:53.247Z,168.00
2023-03-26T05:19:53.224Z,184.00
2023-03-26T05:20:53.498Z,200.00
2023-03-26T05:21:53.150Z,216.00
2023-03-26T05:22:53.126Z,232.00
2023-03-26T05:23:53.158Z,252.00
2023-03-26T05:24:53.070Z,268.00
2023-03-26T05:25:53.060Z,288.00
2023-03-26T05:26:53.029Z,312.00
2023-03-26T05:27:53.001Z,340.00
2023-03-26T05:28:52.979Z,360.00
2023-03-26T05:29:52.961Z,380.00
2023-03-26T05:30:53.190Z,388.00
2023-03-26T05:31:52.913Z,392.00
2023-03-26T05:32:52.964Z,392.00
2023-03-26T05:33:52.886Z,388.00
2023-03-26T05:34:52.825Z,388.00
2023-03-26T05:35:52.863Z,404.00
2023-03-26T05:36:52.778Z,444.00
2023-03-26T05:37:52.758Z,488.00
2023-03-26T05:38:52.728Z,556.00
2023-03-26T05:39:52.715Z,616.00
2023-03-26T05:40:52.812Z,668.00
2023-03-26T05:41:52.666Z,720.00
2023-03-26T05:42:52.641Z,764.00
2023-03-26T05:43:52.607Z,788.00
2023-03-26T05:44:52.593Z,800.00
2023-03-26T05:45:52.630Z,796.00
2023-03-26T05:46:52.556Z,808.00
2023-03-26T05:47:52.580Z,812.00
2023-03-26T05:48:52.490Z,840.00
2023-03-26T05:49:52.465Z,880.00
2023-03-26T05:50:52.695Z,924.00
2023-03-26T05:51:54.989Z,944.00
2023-03-26T05:52:52.409Z,944.00
2023-03-26T05:53:52.372Z,988.00
2023-03-26T05:54:52.339Z,1040.00
2023-03-26T05:55:52.316Z,1072.00
2023-03-26T05:56:52.305Z,1088.00
2023-03-26T05:57:52.281Z,1132.00
2023-03-26T05:58:52.283Z,1168.00
2023-03-26T05:59:52.228Z,1200.00
2023-03-26T06:00:52.286Z,1248.00
2023-03-26T06:01:52.167Z,1304.00
2023-03-26T06:02:52.205Z,1376.00
2023-03-26T06:03:52.169Z,1440.00
2023-03-26T06:04:52.114Z,1476.00
2023-03-26T06:05:52.068Z,1484.00
2023-03-26T06:06:52.042Z,1504.00
2023-03-26T06:07:52.019Z,1500.00
2023-03-26T06:09:02.015Z,1524.00
2023-03-26T06:09:51.992Z,1584.00
2023-03-26T06:10:51.962Z,1632.00
2023-03-26T06:11:51.927Z,1664.00
2023-03-26T06:12:51.901Z,1708.00
2023-03-26T06:13:51.871Z,1792.00
2023-03-26T06:14:51.848Z,1904.00
2023-03-26T06:15:51.871Z,2012.00
2023-03-26T06:16:51.801Z,2092.00
2023-03-26T06:17:51.815Z,2144.00
2023-03-26T06:18:56.568Z,2176.00
2023-03-26T06:19:51.747Z,2168.00
2023-03-26T06:20:51.763Z,2152.00
2023-03-26T06:21:51.692Z,2132.00
2023-03-26T06:22:51.668Z,2104.00
2023-03-26T06:23:51.700Z,2044.00
2023-03-26T06:24:51.605Z,1940.00
2023-03-26T06:25:51.573Z,1800.00
2023-03-26T06:26:51.563Z,1692.00
2023-03-26T06:27:51.536Z,1664.00
2023-03-26T06:28:51.505Z,1716.00
2023-03-26T06:29:51.489Z,1840.00
2023-03-26T06:30:51.580Z,2004.00
2023-03-26T06:31:51.431Z,2128.00
2023-03-26T06:32:51.571Z,2188.00
2023-03-26T06:33:51.393Z,2164.00
2023-03-26T06:34:51.366Z,2092.00
2023-03-26T06:35:51.376Z,1996.00
2023-03-26T06:36:51.318Z,1912.00
2023-03-26T06:37:51.302Z,1832.00
2023-03-26T06:38:51.271Z,1704.00
2023-03-26T06:39:51.264Z,1568.00
2023-03-26T06:40:51.233Z,1472.00
2023-03-26T06:41:51.202Z,1424.00
2023-03-26T06:43:09.374Z,1412.00
2023-03-26T06:43:51.142Z,1436.00
2023-03-26T06:44:51.121Z,1476.00
2023-03-26T06:45:51.102Z,1524.00
2023-03-26T06:46:51.147Z,1488.00
2023-03-26T06:47:51.110Z,1480.00
2023-03-26T06:48:51.024Z,1468.00
2023-03-26T06:49:51.009Z,1452.00
2023-03-26T06:50:51.055Z,1484.00
2023-03-26T06:51:50.957Z,1516.00
2023-03-26T06:52:50.924Z,1500.00
2023-03-26T06:53:50.901Z,1492.00
2023-03-26T06:54:50.886Z,1484.00
2023-03-26T06:55:50.853Z,1596.00
2023-03-26T06:56:50.902Z,1664.00
2023-03-26T06:57:50.852Z,1712.00
2023-03-26T06:58:50.800Z,1732.00
2023-03-26T06:59:50.761Z,1844.00
2023-03-26T07:00:50.760Z,2016.00
2023-03-26T07:01:50.713Z,2092.00
2023-03-26T07:02:50.715Z,2224.00
2023-03-26T07:03:50.721Z,2320.00
2023-03-26T07:04:50.698Z,2408.00
2023-03-26T07:05:50.608Z,2416.00
2023-03-26T07:06:50.593Z,2396.00
2023-03-26T07:07:50.557Z,2364.00
2023-03-26T07:08:50.546Z,2388.00
2023-03-26T07:09:50.521Z,2416.00
2023-03-26T07:10:50.490Z,2444.00
2023-03-26T07:11:50.460Z,2420.00
2023-03-26T07:12:50.441Z,2372.00
2023-03-26T07:13:50.411Z,2284.00
2023-03-26T07:14:50.413Z,2148.00
2023-03-26T07:15:50.381Z,2068.00
2023-03-26T07:16:50.427Z,2068.00
2023-03-26T07:17:50.363Z,2140.00
2023-03-26T07:18:50.305Z,2284.00
2023-03-26T07:19:50.401Z,2456.00
2023-03-26T07:20:50.261Z,2616.00
2023-03-26T07:21:50.234Z,2760.00
2023-03-26T07:22:50.238Z,2856.00
2023-03-26T07:23:50.172Z,2888.00
2023-03-26T07:24:50.152Z,2984.00
2023-03-26T07:25:50.143Z,3188.00
2023-03-26T07:26:50.107Z,3400.00
2023-03-26T07:27:50.075Z,3608.00
2023-03-26T07:29:04.851Z,3824.00
2023-03-26T07:29:50.035Z,4008.00
2023-03-26T07:30:50.011Z,4016.00
2023-03-26T07:31:50.005Z,3844.00
2023-03-26T07:32:50.056Z,3536.00
2023-03-26T07:33:49.926Z,3320.00
2023-03-26T07:34:49.920Z,3192.00
2023-03-26T07:35:49.946Z,3104.00
2023-03-26T07:36:49.855Z,3064.00
2023-03-26T07:37:49.831Z,3008.00
2023-03-26T07:38:49.803Z,2884.00
2023-03-26T07:39:49.780Z,2728.00
2023-03-26T07:40:49.765Z,2528.00
2023-03-26T07:41:49.735Z,2268.00
2023-03-26T07:42:49.743Z,2008.00
2023-03-26T07:43:49.677Z,1812.00
2023-03-26T07:44:49.694Z,1736.00
2023-03-26T07:45:49.675Z,1792.00
2023-03-26T07:46:49.630Z,1948.00
2023-03-26T07:47:49.675Z,2148.00
2023-03-26T07:48:49.574Z,2336.00
2023-03-26T07:49:49.548Z,2488.00
2023-03-26T07:50:49.511Z,2580.00
2023-03-26T07:51:49.492Z,2620.00
2023-03-26T07:52:49.703Z,2648.00
2023-03-26T07:53:49.441Z,2688.00
2023-03-26T07:54:49.449Z,2800.00
2023-03-26T07:55:49.404Z,2964.00
2023-03-26T07:56:49.462Z,3120.00
2023-03-26T07:57:49.337Z,3204.00
2023-03-26T07:58:49.333Z,3304.00
2023-03-26T07:59:49.297Z,3528.00
2023-03-26T08:00:49.273Z,3764.00
2023-03-26T08:01:49.275Z,4044.00
2023-03-26T08:02:49.322Z,4268.00
2023-03-26T08:03:49.290Z,4400.00
2023-03-26T08:04:49.304Z,4424.00
2023-03-26T08:05:49.135Z,4468.00
2023-03-26T08:06:49.117Z,4548.00
2023-03-26T08:07:49.107Z,4728.00
2023-03-26T08:08:49.079Z,4916.00
2023-03-26T08:09:49.042Z,5212.00
2023-03-26T08:10:49.028Z,5584.00
2023-03-26T08:11:49.006Z,5824.00
2023-03-26T08:12:48.979Z,5944.00
2023-03-26T08:13:48.943Z,6008.00
2023-03-26T08:14:48.928Z,6076.00
2023-03-26T08:16:48.879Z,6128.00
2023-03-26T08:17:48.869Z,6212.00
2023-03-26T08:18:48.834Z,6456.00
2023-03-26T08:19:48.800Z,6760.00
2023-03-26T08:20:48.778Z,6968.00
2023-03-26T08:21:48.754Z,6968.00
2023-03-26T08:22:48.742Z,6968.00
2023-03-26T08:23:50.977Z,6880.00
2023-03-26T08:24:48.685Z,6580.00
2023-03-26T08:25:48.657Z,6208.00
2023-03-26T08:26:48.631Z,5904.00
2023-03-26T08:27:48.608Z,5264.00
2023-03-26T08:28:48.590Z,4448.00
2023-03-26T08:29:48.554Z,4176.00
2023-03-26T08:30:48.591Z,4240.00
2023-03-26T08:31:48.520Z,4012.00
2023-03-26T08:32:48.540Z,3988.00
2023-03-26T08:33:48.473Z,4096.00
2023-03-26T08:34:48.495Z,4048.00
2023-03-26T08:35:48.457Z,3708.00
2023-03-26T08:36:48.398Z,3356.00
2023-03-26T08:37:48.366Z,3120.00
2023-03-26T08:38:48.348Z,2940.00
2023-03-26T08:39:48.324Z,2844.00
2023-03-26T08:40:48.297Z,3016.00
2023-03-26T08:41:48.273Z,3136.00
2023-03-26T08:42:48.254Z,3180.00
2023-03-26T08:43:48.221Z,3152.00
2023-03-26T08:44:48.289Z,3040.00
2023-03-26T08:45:48.176Z,2996.00
2023-03-26T08:46:48.177Z,2964.00
2023-03-26T08:47:48.170Z,2880.00
2023-03-26T08:48:48.105Z,2856.00
2023-03-26T08:49:48.089Z,2932.00
2023-03-26T08:50:48.063Z,2984.00
2023-03-26T08:51:48.028Z,3056.00
2023-03-26T08:52:48.010Z,3284.00
2023-03-26T08:53:47.981Z,3416.00
2023-03-26T08:54:47.962Z,3540.00
2023-03-26T08:55:47.931Z,3604.00
2023-03-26T08:56:47.952Z,3676.00
2023-03-26T08:57:47.885Z,3808.00
2023-03-26T08:58:47.869Z,3820.00
2023-03-26T08:59:47.846Z,3704.00
2023-03-26T09:00:47.852Z,3400.00
2023-03-26T09:01:47.855Z,3116.00
2023-03-26T09:02:47.851Z,3348.00
2023-03-26T09:03:47.821Z,3840.00
2023-03-26T09:04:47.718Z,4152.00
2023-03-26T09:05:47.685Z,4132.00
2023-03-26T09:06:47.680Z,3976.00
2023-03-26T09:07:47.641Z,3780.00
2023-03-26T09:08:54.388Z,4072.00
2023-03-26T09:09:47.592Z,4872.00
2023-03-26T09:10:47.573Z,5296.00
2023-03-26T09:17:02.001Z,7404.00
2023-03-26T09:18:02.010Z,7700.00
2023-03-26T09:19:01.938Z,8520.00
2023-03-26T09:20:01.900Z,9976.00
2023-03-26T09:21:01.889Z,10192.00
2023-03-26T09:22:01.855Z,10844.00
2023-03-26T09:23:01.843Z,10924.00
2023-03-26T09:24:01.798Z,10824.00
2023-03-26T09:25:01.799Z,10792.00
2023-03-26T09:26:01.927Z,11292.00
2023-03-26T09:27:01.733Z,13372.00
2023-03-26T09:28:01.714Z,16768.00
2023-03-26T09:29:01.706Z,15720.00
2023-03-26T09:30:01.654Z,17856.00
2023-03-26T09:31:01.651Z,16172.00
2023-03-26T09:32:01.659Z,13728.00
2023-03-26T09:33:01.605Z,11284.00
2023-03-26T09:34:01.569Z,9632.00
2023-03-26T09:35:01.557Z,9312.00
2023-03-26T09:36:01.540Z,11592.00
2023-03-26T09:37:01.491Z,14272.00
2023-03-26T09:38:01.533Z,17180.00
2023-03-26T09:39:01.446Z,21856.00
2023-03-26T09:40:01.420Z,25216.00
2023-03-26T09:41:01.394Z,42016.00
2023-03-26T09:42:01.366Z,23808.00
2023-03-26T09:43:01.350Z,26688.00
2023-03-26T09:44:01.320Z,21376.00
2023-03-26T09:45:01.310Z,16832.00
2023-03-26T09:46:01.366Z,16084.00
2023-03-26T09:47:01.260Z,16044.00
2023-03-26T09:48:01.343Z,17472.00
2023-03-26T09:49:01.258Z,20768.00
2023-03-26T09:50:01.177Z,22464.00
2023-03-26T09:51:01.173Z,23008.00
2023-03-26T09:52:01.232Z,20192.00
2023-03-26T09:53:01.124Z,20608.00
2023-03-26T09:54:01.107Z,17472.00
2023-03-26T09:55:01.070Z,19584.00
2023-03-26T09:56:01.042Z,20832.00
2023-03-26T09:57:01.102Z,17792.00
2023-03-26T09:58:01.087Z,11132.00
2023-03-26T09:59:00.982Z,9880.00
2023-03-26T10:00:00.963Z,11888.00
2023-03-26T10:01:01.009Z,13084.00
2023-03-26T10:02:00.909Z,14076.00
2023-03-26T10:03:00.930Z,14540.00
2023-03-26T10:04:00.862Z,14204.00
2023-03-26T10:05:00.901Z,14928.00
2023-03-26T10:06:00.821Z,13256.00
2023-03-26T10:07:00.809Z,13152.00
2023-03-26T10:08:00.784Z,13044.00
2023-03-26T10:09:00.755Z,12496.00
2023-03-26T10:10:00.728Z,12632.00
2023-03-26T10:11:00.728Z,12432.00
2023-03-26T10:12:00.690Z,12664.00
2023-03-26T10:13:11.960Z,12368.00
2023-03-26T10:14:00.636Z,14060.00
2023-03-26T10:15:00.655Z,13412.00
2023-03-26T10:16:00.629Z,13776.00
2023-03-26T10:17:00.586Z,13304.00
2023-03-26T10:18:00.557Z,13512.00
2023-03-26T10:19:00.524Z,14584.00
2023-03-26T10:20:00.513Z,12952.00
2023-03-26T10:21:00.482Z,10836.00
2023-03-26T10:22:00.458Z,9504.00
2023-03-26T10:23:00.444Z,8540.00
2023-03-26T10:24:00.455Z,8008.00
2023-03-26T10:25:00.385Z,7708.00
2023-03-26T10:26:00.359Z,8712.00
2023-03-26T10:27:09.309Z,9472.00
2023-03-26T10:28:00.311Z,9444.00
2023-03-26T10:29:00.335Z,8420.00
2023-03-26T10:30:00.265Z,8424.00
2023-03-26T10:31:00.381Z,8424.00
2023-03-26T10:32:00.227Z,8388.00
2023-03-26T10:33:00.257Z,8940.00
2023-03-26T10:34:00.177Z,9828.00
2023-03-26T10:35:00.156Z,11280.00
2023-03-26T10:36:00.214Z,16264.00
2023-03-26T10:37:00.114Z,19136.00
2023-03-26T10:38:00.098Z,22624.00
2023-03-26T10:39:00.074Z,26560.00
2023-03-26T10:40:00.072Z,33984.00
2023-03-26T10:41:00.095Z,53216.00
2023-03-26T10:41:59.993Z,47360.00
2023-03-26T10:42:59.973Z,64512.00
2023-03-26T10:44:07.969Z,60064.00
2023-03-26T10:44:59.929Z,48832.00
2023-03-26T10:46:00.003Z,48672.00
2023-03-26T10:46:59.886Z,38752.00
2023-03-26T10:47:59.892Z,46432.00
2023-03-26T10:48:59.852Z,38816.00
2023-03-26T10:49:59.821Z,31456.00
2023-03-26T10:50:59.797Z,28448.00
2023-03-26T10:51:59.774Z,33664.00
2023-03-26T10:52:59.775Z,72736.00
2023-03-26T10:53:59.747Z,65248.00
2023-03-26T10:54:59.726Z,69440.00
2023-03-26T10:55:59.699Z,68064.00
2023-03-26T10:56:59.711Z,67296.00
2023-03-26T10:57:59.667Z,65120.00
2023-03-26T10:58:59.643Z,63264.00
2023-03-26T10:59:59.638Z,62432.00
2023-03-26T11:00:59.600Z,63424.00
2023-03-26T11:01:59.610Z,63456.00
2023-03-26T11:02:59.602Z,65120.00
2023-03-26T11:03:59.548Z,68224.00
2023-03-26T11:04:59.544Z,72800.00
2023-03-26T11:05:59.999Z,57280.00
2023-03-26T11:06:59.528Z,56480.00
2023-03-26T11:07:59.497Z,60928.00
2023-03-26T11:08:59.490Z,69408.00
2023-03-26T11:09:59.451Z,18496.00
2023-03-26T11:10:59.458Z,22720.00
2023-03-26T11:11:59.427Z,18560.00
2023-03-26T11:12:59.434Z,17952.00
2023-03-26T11:13:59.398Z,17160.00
2023-03-26T11:14:59.385Z,19136.00
2023-03-26T11:15:59.389Z,27712.00
2023-03-26T11:16:59.357Z,25824.00
2023-03-26T11:17:59.352Z,20640.00
2023-03-26T11:18:59.342Z,17504.00
2023-03-26T11:19:59.295Z,15816.00
2023-03-26T11:21:19.146Z,12676.00
2023-03-26T11:21:59.260Z,12472.00
2023-03-26T11:22:59.248Z,12356.00
2023-03-26T11:24:04.504Z,12532.00
2023-03-26T11:24:59.220Z,15580.00
2023-03-26T11:25:59.193Z,18816.00
2023-03-26T11:27:15.193Z,17760.00
2023-03-26T11:27:59.195Z,16328.00
2023-03-26T11:29:03.056Z,15592.00
2023-03-26T11:29:59.117Z,10568.00
2023-03-26T11:30:59.444Z,11988.00
2023-03-26T11:31:59.073Z,9292.00
2023-03-26T11:32:59.109Z,7788.00
2023-03-26T11:33:59.059Z,8480.00
2023-03-26T11:34:59.020Z,10000.00
2023-03-26T11:35:59.020Z,14460.00
2023-03-26T11:36:58.980Z,19328.00
2023-03-26T11:37:58.961Z,16456.00
2023-03-26T11:38:58.940Z,11724.00
2023-03-26T11:39:58.917Z,10536.00
2023-03-26T11:40:59.108Z,10752.00
2023-03-26T11:41:58.892Z,11048.00
2023-03-26T11:42:58.868Z,9344.00
2023-03-26T11:43:58.837Z,7856.00
2023-03-26T11:44:58.819Z,7264.00
2023-03-26T11:45:58.844Z,7480.00
2023-03-26T11:46:58.989Z,8640.00
2023-03-26T11:47:58.787Z,13336.00
2023-03-26T11:48:58.739Z,19328.00
2023-03-26T11:49:58.706Z,25280.00
2023-03-26T11:50:58.690Z,18784.00
2023-03-26T11:51:58.666Z,17344.00
2023-03-26T11:52:58.654Z,18336.00
2023-03-26T11:53:58.629Z,14320.00
2023-03-26T11:54:58.697Z,11996.00
2023-03-26T11:57:05.211Z,14112.00
2023-03-26T11:57:58.576Z,14120.00
2023-03-26T11:58:58.517Z,16864.00
2023-03-26T11:59:58.504Z,86304.00
2023-03-26T12:00:58.477Z,54080.00
2023-03-26T12:01:58.524Z,22304.00
2023-03-26T12:02:58.454Z,19296.00
2023-03-26T12:04:58.553Z,14648.00
2023-03-26T12:05:58.369Z,12984.00
2023-03-26T12:06:58.344Z,14592.00
2023-03-26T12:07:58.446Z,15124.00
2023-03-26T12:08:58.305Z,14476.00
2023-03-26T12:09:58.303Z,14116.00
2023-03-26T12:10:58.281Z,12280.00
2023-03-26T12:11:58.264Z,9592.00
2023-03-26T12:12:58.310Z,8292.00
2023-03-26T12:13:58.196Z,8684.00
2023-03-26T12:14:58.184Z,8468.00
2023-03-26T12:15:58.195Z,9368.00
2023-03-26T12:16:58.200Z,8688.00
2023-03-26T12:17:58.212Z,9676.00
2023-03-26T12:18:58.093Z,12124.00
2023-03-26T12:19:58.069Z,13716.00
2023-03-26T12:20:58.054Z,23584.00
2023-03-26T12:21:58.022Z,81856.00
2023-03-26T12:22:58.013Z,32544.00
2023-03-26T12:23:58.047Z,76768.00
2023-03-26T12:24:57.966Z,24096.00
2023-03-26T12:25:57.940Z,72512.00
2023-03-26T12:26:57.925Z,22656.00
2023-03-26T12:27:57.914Z,49856.00
2023-03-26T12:28:57.906Z,57440.00
2023-03-26T12:29:57.871Z,55488.00
2023-03-26T12:30:57.949Z,56224.00
2023-03-26T12:31:57.892Z,47584.00
2023-03-26T12:32:57.858Z,51360.00
2023-03-26T12:33:59.037Z,13576.00
2023-03-26T12:34:57.827Z,13148.00
2023-03-26T12:35:57.808Z,10996.00
2023-03-26T12:36:57.761Z,9448.00
2023-03-26T12:37:57.732Z,8128.00